Time;durP1;ratioP1;P1;durP2;ratioP2;P2;SDS_P1;SDS_P2;PMS_P1;PMS_P2;Temp;Humidity;BMP_temperature;BMP_pressure;BME280_temperature;BME280_humidity;BME280_pressure;Samples;Min_cycle;Max_cycle;Signal;HPM_P1;HPM_P2
2023/04/08 00:00:24;;;;;;;10.87;9.33;;;;;;;13.57;61.05;99008.06;6998002;28;20230;-76
2023/04/08 00:03:47;;;;;;;10.53;9.50;;;;;;;13.59;61.16;99021.41;6998789;28;20226;-77
2023/04/08 00:07:08;;;;;;;10.93;9.20;;;;;;;13.70;61.12;99026.13;6998890;28;20288;-76
2023/04/08 00:10:30;;;;;;;14.37;9.70;;;;;;;13.59;60.89;99022.25;6997718;28;20209;-76
2023/04/08 00:13:51;;;;;;;10.97;9.87;;;;;;;13.61;60.97;99020.13;7000206;28;20225;-76
2023/04/08 00:17:13;;;;;;;12.20;10.20;;;;;;;13.85;60.41;99023.91;6998149;28;20237;-76
2023/04/08 00:20:36;;;;;;;12.33;9.93;;;;;;;13.45;60.21;99017.94;6996924;28;20233;-76
2023/04/08 00:23:57;;;;;;;11.60;9.30;;;;;;;13.56;60.27;99025.38;6998084;28;20297;-76
2023/04/08 00:27:19;;;;;;;11.43;10.23;;;;;;;13.86;59.72;99015.56;6997850;28;20210;-76
2023/04/08 00:30:40;;;;;;;13.13;10.70;;;;;;;13.55;60.11;99028.28;6996812;28;20287;-76
2023/04/08 00:34:02;;;;;;;12.10;10.30;;;;;;;13.53;60.77;99028.53;6997686;28;20781;-77
2023/04/08 00:37:25;;;;;;;15.37;12.30;;;;;;;13.61;60.66;99030.13;6997492;28;20611;-76
2023/04/08 00:40:46;;;;;;;11.83;10.63;;;;;;;13.84;60.04;99025.81;6992608;28;20229;-77
2023/04/08 00:44:08;;;;;;;11.70;10.50;;;;;;;13.70;59.99;99026.13;6997165;28;20251;-76
2023/04/08 00:47:29;;;;;;;12.17;9.90;;;;;;;13.56;60.61;99028.09;6997518;28;20266;-76
2023/04/08 00:50:51;;;;;;;12.47;10.43;;;;;;;13.45;61.29;99036.91;6996810;28;20198;-76
2023/04/08 00:54:14;;;;;;;12.60;11.30;;;;;;;13.71;60.69;99039.47;6996395;28;20300;-76
2023/04/08 00:57:35;;;;;;;12.10;10.70;;;;;;;13.74;60.67;99030.06;6996758;28;20236;-76
2023/04/08 01:01:01;;;;;;;11.30;9.60;;;;;;;13.95;59.87;99043.22;6995919;28;20229;-76
2023/04/08 01:04:33;;;;;;;10.90;9.80;;;;;;;13.89;59.17;99036.81;6996825;28;20768;-76
2023/04/08 01:07:55;;;;;;;12.30;10.00;;;;;;;13.67;59.98;99045.50;6997223;28;20266;-76
2023/04/08 01:11:18;;;;;;;12.43;10.30;;;;;;;13.58;60.09;99039.53;6994692;28;20203;-76
2023/04/08 01:14:42;;;;;;;13.17;11.77;;;;;;;13.53;60.86;99044.78;6996782;28;20282;-76
2023/04/08 01:18:06;;;;;;;14.80;12.33;;;;;;;13.56;60.90;99029.94;6996793;28;20232;-76
2023/04/08 01:21:28;;;;;;;16.00;13.00;;;;;;;13.56;60.66;99040.78;6995545;28;20378;-77
2023/04/08 01:24:56;;;;;;;15.80;12.67;;;;;;;13.60;60.17;99039.31;6996079;28;20226;-76
2023/04/08 01:28:19;;;;;;;16.13;14.00;;;;;;;13.65;59.91;99044.91;6996478;28;20294;-78
2023/04/08 01:31:41;;;;;;;16.93;13.70;;;;;;;13.41;59.99;99024.03;6995718;28;20217;-77
2023/04/08 01:35:03;;;;;;;14.17;12.67;;;;;;;13.55;59.73;99025.59;6996451;28;20230;-77
2023/04/08 01:38:25;;;;;;;15.63;12.97;;;;;;;13.51;60.08;99027.09;6995931;28;20347;-77
2023/04/08 01:41:47;;;;;;;16.00;13.13;;;;;;;13.55;59.39;99025.59;6995284;28;20236;-77
2023/04/08 01:45:11;;;;;;;15.90;13.57;;;;;;;13.57;59.48;99029.75;6996353;28;20697;-77
2023/04/08 01:48:33;;;;;;;14.30;12.60;;;;;;;13.56;59.52;99033.50;6996310;28;20290;-76
2023/04/08 01:51:56;;;;;;;15.40;12.93;;;;;;;13.67;59.26;99035.50;6995062;28;20202;-78
2023/04/08 01:55:18;;;;;;;16.90;13.53;;;;;;;13.78;59.08;99032.09;6995830;28;20221;-78
2023/04/08 01:58:42;;;;;;;16.60;14.03;;;;;;;13.65;58.88;99023.25;6995701;28;20243;-77
2023/04/08 02:02:06;;;;;;;17.83;14.50;;;;;;;13.66;58.81;99030.31;6994818;28;20238;-78
2023/04/08 02:05:28;;;;;;;17.27;14.73;;;;;;;13.63;58.94;99031.56;7000230;28;20226;-78
2023/04/08 02:08:50;;;;;;;18.13;14.63;;;;;;;13.61;58.77;99030.13;6999629;28;20202;-77
2023/04/08 02:12:11;;;;;;;17.17;14.40;;;;;;;13.61;58.86;99032.84;7000964;28;20207;-78
2023/04/08 02:15:35;;;;;;;19.27;15.80;;;;;;;13.54;59.26;99027.47;7000945;28;20370;-78
2023/04/08 02:19:01;;;;;;;19.40;15.87;;;;;;;13.50;59.12;99039.78;7000881;28;20202;-77
2023/04/08 02:22:26;;;;;;;20.60;15.73;;;;;;;13.52;59.14;99034.16;7001060;28;20774;-78
2023/04/08 02:25:48;;;;;;;18.80;15.17;;;;;;;13.55;59.04;99031.00;7002429;28;20371;-76
2023/04/08 02:29:11;;;;;;;20.40;15.27;;;;;;;13.22;59.05;99003.31;7000794;28;20739;-76
2023/04/08 02:32:33;;;;;;;18.10;16.20;;;;;;;13.58;58.66;99044.13;7000070;28;20214;-78
2023/04/08 02:35:57;;;;;;;21.57;16.37;;;;;;;13.47;58.83;99029.41;7000636;28;20231;-77
2023/04/08 02:39:18;;;;;;;21.37;16.03;;;;;;;13.59;58.79;99043.06;7000625;28;20550;-76
2023/04/08 02:42:40;;;;;;;18.47;15.70;;;;;;;13.66;58.86;99035.72;7005553;28;20226;-76
2023/04/08 02:46:02;;;;;;;21.37;16.63;;;;;;;13.48;59.31;99047.31;7023532;28;20209;-77
2023/04/08 02:49:24;;;;;;;23.33;17.47;;;;;;;13.39;59.45;99045.91;7028574;28;20216;-77
2023/04/08 02:52:47;;;;;;;21.90;16.60;;;;;;;13.58;58.94;99044.94;7027402;28;20206;-76
2023/04/08 02:56:10;;;;;;;19.37;16.80;;;;;;;13.63;58.72;99036.19;7027961;28;20207;-77
2023/04/08 02:59:31;;;;;;;22.57;17.17;;;;;;;13.57;58.65;99040.56;7027835;28;20201;-77
2023/04/08 03:02:53;;;;;;;21.67;17.60;;;;;;;13.41;58.96;99024.88;7028115;28;20263;-76
2023/04/08 03:06:14;;;;;;;20.90;17.13;;;;;;;13.26;59.46;99037.00;7027790;28;20852;-77
2023/04/08 03:09:37;;;;;;;21.63;16.53;;;;;;;13.21;59.24;99047.69;7026040;28;20258;-77
2023/04/08 03:12:59;;;;;;;24.50;19.57;;;;;;;13.29;59.16;99036.59;7027583;28;20229;-78
2023/04/08 03:16:20;;;;;;;21.03;17.57;;;;;;;13.26;59.01;99048.69;7026870;28;20291;-78
2023/04/08 03:19:42;;;;;;;21.20;18.73;;;;;;;13.16;59.47;99058.31;7030653;28;20219;-77
2023/04/08 03:23:03;;;;;;;21.93;17.67;;;;;;;12.83;59.86;99055.72;7038160;28;20269;-76
2023/04/08 03:26:26;;;;;;;20.10;16.73;;;;;;;13.30;59.02;99057.22;7027619;28;20281;-76
2023/04/08 03:29:48;;;;;;;23.20;18.43;;;;;;;13.28;58.88;99037.66;7026232;28;20225;-76
2023/04/08 03:33:09;;;;;;;22.67;17.80;;;;;;;13.34;58.63;99050.31;7026900;28;20293;-76
2023/04/08 03:36:31;;;;;;;21.97;17.87;;;;;;;13.09;59.11;99054.81;7027559;28;20551;-76
2023/04/08 03:39:54;;;;;;;22.27;17.33;;;;;;;12.95;59.54;99055.88;7025902;28;20213;-76
2023/04/08 03:43:18;;;;;;;21.13;17.10;;;;;;;13.04;59.32;99052.75;7026576;28;20380;-77
2023/04/08 03:46:39;;;;;;;21.50;17.70;;;;;;;13.13;58.83;99047.91;7026705;28;20569;-76
2023/04/08 03:50:01;;;;;;;23.83;18.17;;;;;;;13.16;58.95;99053.72;7025932;28;20282;-76
2023/04/08 03:53:22;;;;;;;23.40;18.47;;;;;;;13.32;58.65;99042.41;7026357;28;20226;-77
2023/04/08 03:56:44;;;;;;;21.77;18.57;;;;;;;13.21;58.76;99032.25;7026643;28;20752;-76
2023/04/08 04:00:08;;;;;;;23.60;18.33;;;;;;;13.20;58.71;99040.59;7025586;28;20837;-76
2023/04/08 04:03:30;;;;;;;23.83;19.17;;;;;;;13.17;58.73;99036.44;7025983;28;20289;-76
2023/04/08 04:06:51;;;;;;;25.97;18.30;;;;;;;13.15;58.95;99048.56;7025573;28;20295;-76
2023/04/08 04:10:13;;;;;;;22.97;17.63;;;;;;;13.14;58.81;99039.59;7023466;28;20214;-76
2023/04/08 04:13:34;;;;;;;23.97;18.13;;;;;;;13.10;58.71;99042.94;7006057;28;20218;-76
2023/04/08 04:16:57;;;;;;;24.33;18.83;;;;;;;12.73;59.65;99047.22;6997255;28;20209;-76
2023/04/08 04:20:20;;;;;;;24.87;18.60;;;;;;;12.78;59.65;99052.81;6996656;28;20229;-76
2023/04/08 04:23:42;;;;;;;23.57;18.47;;;;;;;12.88;59.17;99052.38;6997191;28;20255;-77
2023/04/08 04:27:03;;;;;;;24.50;18.67;;;;;;;13.12;59.02;99057.09;6997443;28;20625;-78
2023/04/08 04:30:26;;;;;;;24.87;18.80;;;;;;;13.14;58.67;99052.28;6997573;28;20217;-78
2023/04/08 04:33:49;;;;;;;26.63;20.87;;;;;;;13.47;57.85;99044.81;6998090;28;20244;-78
2023/04/08 04:37:10;;;;;;;32.50;24.00;;;;;;;13.40;57.57;99054.88;6998033;28;20202;-76
2023/04/08 04:40:32;;;;;;;25.00;18.87;;;;;;;13.23;58.12;99064.53;6997019;28;20236;-77
2023/04/08 04:43:53;;;;;;;22.63;17.67;;;;;;;13.23;58.15;99062.63;7003646;28;20270;-77
2023/04/08 04:47:15;;;;;;;27.53;19.93;;;;;;;12.76;58.95;99035.13;7022161;28;20257;-76
2023/04/08 04:50:38;;;;;;;26.73;20.77;;;;;;;12.74;60.24;99056.16;7023821;28;20214;-77
2023/04/08 04:54:00;;;;;;;27.13;20.13;;;;;;;12.75;60.25;99055.94;7024998;28;20232;-76
2023/04/08 04:57:21;;;;;;;25.30;19.53;;;;;;;12.80;59.99;99074.25;6999636;28;20201;-77
2023/04/08 05:00:43;;;;;;;29.13;20.87;;;;;;;12.69;60.49;99081.13;6995545;28;20637;-77
2023/04/08 05:04:04;;;;;;;26.07;19.87;;;;;;;12.91;60.08;99079.81;6996171;28;20696;-76
2023/04/08 05:07:27;;;;;;;26.07;19.27;;;;;;;12.93;59.57;99077.72;6995981;28;20256;-76
2023/04/08 05:10:50;;;;;;;26.70;19.10;;;;;;;12.79;59.86;99072.56;6993847;28;20202;-76
2023/04/08 05:14:11;;;;;;;26.33;18.87;;;;;;;12.93;59.67;99085.84;6996340;28;20260;-77
2023/04/08 05:17:33;;;;;;;28.20;19.77;;;;;;;12.76;59.95;99094.66;6996444;28;20271;-76
2023/04/08 05:20:54;;;;;;;25.57;18.37;;;;;;;12.80;59.94;99090.50;6995659;28;20750;-77
2023/04/08 05:24:17;;;;;;;30.37;19.40;;;;;;;12.75;59.77;99103.81;6996277;28;20226;-77
2023/04/08 05:27:39;;;;;;;26.57;19.83;;;;;;;12.81;59.59;99095.66;6995830;28;20658;-76
2023/04/08 05:31:00;;;;;;;24.73;17.60;;;;;;;12.69;59.91;99113.59;6994998;28;20217;-76
2023/04/08 05:34:22;;;;;;;30.20;19.40;;;;;;;12.94;59.42;99101.06;6995731;28;20225;-76
2023/04/08 05:37:43;;;;;;;27.03;18.60;;;;;;;12.65;59.50;99093.44;6995424;28;20205;-77
2023/04/08 05:41:06;;;;;;;26.77;19.10;;;;;;;12.77;59.61;99099.00;6994965;28;20307;-77
2023/04/08 05:44:28;;;;;;;28.33;19.47;;;;;;;12.66;59.87;99110.47;6995272;28;20274;-77
2023/04/08 05:47:49;;;;;;;26.83;18.67;;;;;;;12.83;59.63;99112.53;6995552;28;20206;-76
2023/04/08 05:51:13;;;;;;;27.77;18.93;;;;;;;12.90;59.36;99107.09;6995299;28;20204;-76
2023/04/08 05:54:35;;;;;;;24.03;17.63;;;;;;;12.75;59.58;99120.06;6995626;28;20713;-78
2023/04/08 05:57:58;;;;;;;26.20;19.03;;;;;;;13.03;59.26;99112.50;6995494;28;20206;-77
2023/04/08 06:01:19;;;;;;;27.63;18.97;;;;;;;12.88;59.22;99118.16;6994642;28;20226;-77
2023/04/08 06:04:41;;;;;;;29.03;18.53;;;;;;;13.23;58.34;99116.78;6995499;28;20232;-77
2023/04/08 06:08:02;;;;;;;26.70;19.27;;;;;;;12.71;59.96;99135.88;6995466;28;20205;-77
2023/04/08 06:11:24;;;;;;;26.97;19.13;;;;;;;12.86;59.00;99119.41;6993140;28;20197;-76
2023/04/08 06:14:47;;;;;;;24.97;18.40;;;;;;;12.70;59.73;99136.09;6995433;28;20753;-77
2023/04/08 06:18:08;;;;;;;25.57;19.87;;;;;;;12.96;59.13;99138.75;6995636;28;20796;-77
2023/04/08 06:21:30;;;;;;;27.20;19.00;;;;;;;12.97;59.38;99143.97;6995051;28;20233;-77
2023/04/08 06:24:51;;;;;;;24.27;18.80;;;;;;;13.16;58.38;99144.97;6995637;28;20309;-77
2023/04/08 06:28:13;;;;;;;22.90;17.30;;;;;;;13.01;58.91;99147.06;6991241;28;20202;-78
2023/04/08 06:31:35;;;;;;;24.03;17.53;;;;;;;13.14;57.93;99141.63;6993400;28;20217;-79
2023/04/08 06:34:57;;;;;;;23.27;17.17;;;;;;;12.71;58.85;99125.06;6980333;28;20702;-79
2023/04/08 06:38:18;;;;;;;21.87;17.33;;;;;;;12.91;58.78;99147.47;6998627;28;20205;-76
2023/04/08 06:41:40;;;;;;;20.03;15.40;;;;;;;12.54;59.17;99128.41;6989891;28;20278;-77
2023/04/08 06:45:01;;;;;;;19.43;16.00;;;;;;;12.99;58.96;99166.22;6993712;28;20283;-77
2023/04/08 06:48:27;;;;;;;22.37;17.37;;;;;;;13.00;58.81;99158.94;6995450;28;20342;-75
2023/04/08 06:51:49;;;;;;;22.63;17.10;;;;;;;12.66;59.15;99159.19;7002482;28;20221;-79
2023/04/08 06:55:10;;;;;;;20.27;15.80;;;;;;;12.75;59.45;99164.16;7002413;28;20283;-78
2023/04/08 06:58:32;;;;;;;23.97;17.07;;;;;;;12.86;59.52;99158.09;7000160;28;20207;-78
2023/04/08 07:01:53;;;;;;;20.73;16.00;;;;;;;12.63;59.16;99140.69;6999079;28;20226;-76
2023/04/08 07:05:16;;;;;;;20.57;15.43;;;;;;;13.32;58.33;99163.41;6999925;28;20230;-78
2023/04/08 07:08:38;;;;;;;19.03;15.10;;;;;;;13.48;57.34;99168.38;6997868;28;20259;-78
2023/04/08 07:12:00;;;;;;;20.03;14.90;;;;;;;13.87;56.02;99173.63;6998904;28;20195;-77
2023/04/08 07:15:21;;;;;;;19.97;16.17;;;;;;;13.53;56.01;99172.13;6991995;28;20222;-78
2023/04/08 07:18:42;;;;;;;18.70;15.40;;;;;;;13.82;56.79;99174.28;6994503;28;20618;-80
2023/04/08 07:22:05;;;;;;;19.17;16.10;;;;;;;13.73;55.95;99163.88;6999425;28;20310;-78
2023/04/08 07:25:27;;;;;;;17.73;14.27;;;;;;;13.19;56.19;99174.31;7001143;28;20303;-81
2023/04/08 07:28:48;;;;;;;19.93;15.33;;;;;;;13.46;56.90;99159.63;7001765;28;20260;-77
2023/04/08 07:32:10;;;;;;;18.00;14.90;;;;;;;14.12;54.70;99166.34;6998148;28;20577;-77
2023/04/08 07:35:31;;;;;;;17.93;15.17;;;;;;;13.88;55.08;99186.13;6998611;28;20262;-77
2023/04/08 07:38:54;;;;;;;16.20;13.80;;;;;;;14.19;54.13;99187.00;6998707;28;20210;-79
2023/04/08 07:42:15;;;;;;;17.97;15.37;;;;;;;14.23;53.82;99166.50;6997921;28;20235;-75
2023/04/08 07:45:37;;;;;;;18.70;15.77;;;;;;;13.46;54.88;99157.75;6999204;28;20569;-77
2023/04/08 07:48:58;;;;;;;18.07;15.17;;;;;;;13.85;54.62;99184.66;6998654;28;20211;-77
2023/04/08 07:52:20;;;;;;;18.10;14.90;;;;;;;13.71;55.46;99191.22;6997404;28;20206;-75
2023/04/08 07:55:43;;;;;;;16.90;14.27;;;;;;;13.58;55.81;99195.84;6998141;28;20723;-75
2023/04/08 07:59:04;;;;;;;17.27;15.17;;;;;;;13.67;55.25;99165.59;6985681;28;20203;-75
2023/04/08 08:02:27;;;;;;;16.73;14.13;;;;;;;12.97;56.48;99186.41;6979955;28;20276;-76
2023/04/08 08:05:49;;;;;;;17.93;15.07;;;;;;;13.64;55.28;99211.25;6977994;28;20231;-76
2023/04/08 08:09:11;;;;;;;20.17;16.27;;;;;;;13.77;55.58;99200.34;6970695;28;20717;-76
2023/04/08 08:12:33;;;;;;;19.10;16.03;;;;;;;13.83;54.54;99210.31;6994977;28;20250;-76
2023/04/08 08:15:55;;;;;;;19.97;16.87;;;;;;;14.17;55.05;99210.75;6997458;28;20275;-76
2023/04/08 08:19:17;;;;;;;18.07;15.70;;;;;;;14.41;53.40;99209.16;6983900;28;20212;-76
2023/04/08 08:22:39;;;;;;;18.43;16.43;;;;;;;14.64;52.88;99203.97;6969538;28;20725;-76
2023/04/08 08:26:01;;;;;;;17.20;15.17;;;;;;;14.70;52.47;99206.63;6989186;28;20606;-77
2023/04/08 08:29:24;;;;;;;17.20;15.33;;;;;;;14.52;53.10;99208.47;6994533;28;20212;-76
2023/04/08 08:32:46;;;;;;;19.37;15.43;;;;;;;15.31;51.17;99196.66;6993760;28;20193;-75
2023/04/08 08:36:07;;;;;;;14.93;13.40;;;;;;;15.74;49.11;99202.84;6995546;28;20211;-75
2023/04/08 08:39:29;;;;;;;18.00;15.90;;;;;;;15.38;51.42;99208.31;6997293;28;20286;-75
2023/04/08 08:42:52;;;;;;;16.43;14.73;;;;;;;15.24;51.05;99211.34;6996504;28;20234;-75
2023/04/08 08:46:17;;;;;;;16.50;14.70;;;;;;;15.38;49.42;99213.75;6996336;28;20646;-77
2023/04/08 08:49:39;;;;;;;18.00;15.00;;;;;;;15.40;49.03;99216.22;6994909;28;20199;-75
2023/04/08 08:53:00;;;;;;;15.43;13.83;;;;;;;15.67;48.84;99215.69;6996952;28;20231;-76
2023/04/08 08:56:22;;;;;;;18.50;15.40;;;;;;;15.73;49.05;99219.38;6996512;28;20221;-75
2023/04/08 08:59:45;;;;;;;16.37;13.40;;;;;;;15.51;47.80;99220.94;6996150;28;20219;-75
2023/04/08 09:03:16;;;;;;;16.40;14.70;;;;;;;15.55;48.87;99178.63;6996367;28;20647;-76
2023/04/08 09:06:38;;;;;;;15.20;13.50;;;;;;;15.77;48.16;99217.88;6997047;28;20703;-75
2023/04/08 09:09:59;;;;;;;15.47;13.93;;;;;;;15.64;48.62;99226.19;6994204;28;20700;-76
2023/04/08 09:13:22;;;;;;;15.90;14.27;;;;;;;16.23;47.87;99227.06;6993729;28;20304;-78
2023/04/08 09:16:44;;;;;;;15.40;13.40;;;;;;;16.06;48.28;99222.53;6994550;28;20216;-77
2023/04/08 09:20:11;;;;;;;15.80;13.90;;;;;;;15.44;48.20;99222.84;6990495;28;20645;-79
2023/04/08 09:23:40;;;;;;;14.27;12.77;;;;;;;16.26;46.29;99210.31;6988360;28;20246;-77
2023/04/08 09:27:02;;;;;;;15.70;14.10;;;;;;;16.33;46.23;99221.91;6977779;28;20257;-77
2023/04/08 09:30:25;;;;;;;14.17;12.70;;;;;;;16.44;45.55;99225.75;6995361;28;20967;-78
2023/04/08 09:33:47;;;;;;;12.80;11.50;;;;;;;17.35;43.57;99222.31;6996326;28;20298;-75
2023/04/08 09:37:11;;;;;;;13.87;12.27;;;;;;;16.99;43.78;99208.13;6988539;28;20703;-78
2023/04/08 09:40:34;;;;;;;15.03;12.97;;;;;;;17.24;43.64;99220.44;6996297;28;20284;-78
2023/04/08 09:43:57;;;;;;;14.83;12.10;;;;;;;16.88;42.77;99215.19;6997263;28;20244;-79
2023/04/08 09:47:20;;;;;;;12.83;11.53;;;;;;;16.64;43.72;99218.13;6996508;28;20215;-77
2023/04/08 09:50:44;;;;;;;16.20;12.70;;;;;;;17.35;43.17;99213.31;6995630;28;20727;-77
2023/04/08 09:54:13;;;;;;;13.30;12.00;;;;;;;17.38;42.42;99202.81;6996621;28;20222;-80
2023/04/08 09:57:41;;;;;;;12.43;11.13;;;;;;;17.05;44.01;99210.69;6996651;28;20205;-78
2023/04/08 10:01:02;;;;;;;13.03;11.53;;;;;;;17.23;43.25;99216.03;6995911;28;20208;-77
2023/04/08 10:04:25;;;;;;;14.90;13.40;;;;;;;17.38;42.07;99216.44;6995709;28;20226;-78
2023/04/08 10:07:46;;;;;;;13.10;11.67;;;;;;;15.76;44.73;99221.66;6995786;28;20198;-78
2023/04/08 10:11:09;;;;;;;15.97;13.07;;;;;;;16.68;44.36;99216.63;6993918;28;20697;-78
2023/04/08 10:14:31;;;;;;;19.43;17.53;;;;;;;16.46;43.26;99207.31;6995468;28;20226;-79
2023/04/08 10:17:53;;;;;;;12.47;11.17;;;;;;;16.49;42.68;99217.72;6995963;28;20749;-77
2023/04/08 10:21:37;;;;;;;12.50;11.13;;;;;;;16.54;42.92;99209.69;6994946;28;20197;-78
2023/04/08 10:25:29;;;;;;;12.83;10.83;;;;;;;15.86;43.08;99219.25;6997400;28;20227;-77
2023/04/08 10:28:52;;;;;;;13.80;12.50;;;;;;;16.35;42.61;99214.34;7000413;28;20210;-77
2023/04/08 10:32:28;;;;;;;12.87;11.57;;;;;;;15.71;43.51;99221.50;6999835;28;20216;-77
2023/04/08 10:35:53;;;;;;;13.43;11.23;;;;;;;16.22;43.02;99213.72;7000404;28;20231;-78
2023/04/08 10:39:15;;;;;;;12.47;10.63;;;;;;;15.96;42.13;99212.19;7001119;28;20656;-81
2023/04/08 10:42:36;;;;;;;12.03;10.70;;;;;;;15.94;41.88;99214.31;7001393;28;20229;-78
2023/04/08 10:46:00;;;;;;;11.97;10.40;;;;;;;16.08;40.39;99221.22;7001543;28;20280;-80
2023/04/08 10:49:21;;;;;;;10.67;9.73;;;;;;;16.39;39.83;99220.22;7001431;28;20210;-77
2023/04/08 10:52:47;;;;;;;10.87;9.77;;;;;;;16.82;38.84;99207.16;6999224;28;20650;-76
2023/04/08 10:56:11;;;;;;;11.00;9.73;;;;;;;16.35;38.33;99224.41;6999825;28;20358;-79
2023/04/08 10:59:33;;;;;;;10.63;9.53;;;;;;;16.69;37.72;99221.81;6999216;28;20215;-77
2023/04/08 11:03:00;;;;;;;11.03;9.83;;;;;;;16.52;37.77;99215.38;6999707;28;20720;-79
2023/04/08 11:06:22;;;;;;;10.23;9.23;;;;;;;16.50;37.79;99222.09;7000110;28;20708;-76
2023/04/08 11:09:44;;;;;;;10.67;8.87;;;;;;;16.45;37.57;99213.84;6998254;28;20312;-76
2023/04/08 11:13:07;;;;;;;10.73;8.93;;;;;;;16.42;36.42;99208.84;6999723;28;20227;-79
2023/04/08 11:16:29;;;;;;;11.33;8.70;;;;;;;16.09;36.28;99222.88;7000213;28;20716;-77
2023/04/08 11:19:52;;;;;;;10.33;9.00;;;;;;;15.91;36.24;99216.63;7000798;28;20207;-82
2023/04/08 11:23:14;;;;;;;9.67;8.53;;;;;;;16.70;36.71;99214.47;7001544;28;20267;-78
2023/04/08 11:26:36;;;;;;;12.70;8.87;;;;;;;16.37;35.17;99208.66;7000500;28;20777;-76
2023/04/08 11:29:59;;;;;;;11.80;7.90;;;;;;;16.42;35.66;99217.00;7002185;28;20213;-82
2023/04/08 11:33:21;;;;;;;7.57;6.77;;;;;;;16.65;34.79;99222.50;7000209;28;20357;-78
2023/04/08 11:36:45;;;;;;;7.73;6.90;;;;;;;17.02;34.56;99213.06;6996121;28;20201;-77
2023/04/08 11:40:08;;;;;;;8.70;7.70;;;;;;;16.73;33.70;99222.16;6997632;28;20335;-77
2023/04/08 11:43:30;;;;;;;8.17;7.27;;;;;;;16.84;33.57;99218.63;6998299;28;20237;-79
2023/04/08 11:46:56;;;;;;;7.80;7.00;;;;;;;16.42;34.41;99220.56;6998294;28;20231;-77
2023/04/08 11:50:23;;;;;;;8.33;7.50;;;;;;;16.70;34.74;99223.47;6997284;28;20694;-77
2023/04/08 11:53:47;;;;;;;9.57;7.47;;;;;;;16.45;33.75;99213.84;6998561;28;20280;-79
2023/04/08 11:57:09;;;;;;;9.73;7.63;;;;;;;15.95;34.06;99202.38;6999905;28;20213;-77
2023/04/08 12:00:31;;;;;;;12.30;8.50;;;;;;;15.84;34.10;99214.03;6999267;28;20620;-78
2023/04/08 12:04:00;;;;;;;9.37;7.77;;;;;;;15.99;33.65;99236.19;6997885;28;20711;-78
2023/04/08 12:07:21;;;;;;;8.07;7.27;;;;;;;15.85;34.18;99223.84;6998659;28;20692;-79
2023/04/08 12:10:44;;;;;;;8.93;8.03;;;;;;;15.79;34.94;99229.34;6994926;28;20299;-77
2023/04/08 12:14:06;;;;;;;9.47;8.00;;;;;;;15.87;35.79;99231.78;6995678;28;20223;-78
2023/04/08 12:17:27;;;;;;;10.30;7.83;;;;;;;16.32;35.49;99230.31;6997765;28;20626;-78
2023/04/08 12:20:49;;;;;;;9.03;8.00;;;;;;;15.50;36.53;99225.50;6996724;28;20208;-78
2023/04/08 12:24:10;;;;;;;11.47;8.57;;;;;;;15.69;36.88;99231.78;6995388;28;20263;-77
2023/04/08 12:27:33;;;;;;;9.17;8.27;;;;;;;15.94;36.38;99233.38;6997422;28;20264;-79
2023/04/08 12:30:55;;;;;;;9.23;8.33;;;;;;;15.51;37.32;99224.44;6996846;28;20215;-77
2023/04/08 12:34:16;;;;;;;14.40;8.73;;;;;;;15.73;36.97;99238.41;6996993;28;20255;-78
2023/04/08 12:37:38;;;;;;;9.70;8.70;;;;;;;14.81;38.57;99237.66;6997488;28;20239;-78
2023/04/08 12:40:59;;;;;;;9.90;8.50;;;;;;;15.53;37.78;99232.38;6996956;28;20234;-78
2023/04/08 12:44:22;;;;;;;10.20;9.20;;;;;;;15.97;37.65;99234.75;7000902;28;20711;-77
2023/04/08 12:47:44;;;;;;;9.87;8.97;;;;;;;15.17;38.65;99240.47;6995674;28;20255;-77
2023/04/08 12:51:05;;;;;;;8.93;8.03;;;;;;;15.43;38.88;99246.50;6993860;28;20202;-78
2023/04/08 12:54:27;;;;;;;9.63;8.73;;;;;;;15.67;38.94;99236.59;6969276;28;20583;-77
2023/04/08 12:57:48;;;;;;;9.70;8.80;;;;;;;15.87;37.71;99235.31;6985725;28;20204;-78
2023/04/08 13:01:11;;;;;;;9.77;8.77;;;;;;;15.19;39.36;99235.63;6974271;28;20234;-78
2023/04/08 13:04:33;;;;;;;10.03;9.00;;;;;;;15.21;39.36;99242.50;6969284;28;20343;-77
2023/04/08 13:07:54;;;;;;;9.33;8.40;;;;;;;15.16;39.81;99233.38;6970836;28;20586;-78
2023/04/08 13:11:16;;;;;;;9.67;8.67;;;;;;;15.37;39.14;99239.25;6970537;28;20196;-78
2023/04/08 13:14:37;;;;;;;10.70;9.33;;;;;;;15.44;39.54;99240.00;6997233;28;20281;-77
2023/04/08 13:18:00;;;;;;;11.70;9.37;;;;;;;15.57;39.40;99233.59;6996949;28;20201;-79
2023/04/08 13:21:22;;;;;;;10.97;9.20;;;;;;;15.49;39.58;99233.88;6995808;28;20210;-77
2023/04/08 13:24:43;;;;;;;11.90;8.90;;;;;;;15.46;39.78;99224.28;6996042;28;20289;-79
2023/04/08 13:28:05;;;;;;;9.57;8.60;;;;;;;15.37;40.04;99219.38;6997474;28;20257;-79
2023/04/08 13:31:26;;;;;;;10.43;9.27;;;;;;;15.52;39.43;99228.81;6999744;28;20589;-78
2023/04/08 13:34:49;;;;;;;10.80;9.63;;;;;;;16.22;38.19;99222.69;7001274;28;20227;-79
2023/04/08 13:38:11;;;;;;;10.73;9.63;;;;;;;16.12;38.48;99222.44;7000682;28;20219;-77
2023/04/08 13:41:33;;;;;;;20.53;18.53;;;;;;;16.32;38.56;99219.41;6999844;28;20345;-80
2023/04/08 13:44:55;;;;;;;12.37;10.17;;;;;;;16.23;38.39;99216.19;7000826;28;20248;-79
2023/04/08 13:48:16;;;;;;;9.77;8.77;;;;;;;15.92;38.64;99208.25;7009587;28;20224;-80
2023/04/08 13:51:39;;;;;;;9.80;8.80;;;;;;;15.90;38.77;99218.56;6999381;28;20210;-78
2023/04/08 13:55:01;;;;;;;10.93;9.83;;;;;;;16.24;38.54;99198.00;6996153;28;20225;-77
2023/04/08 13:58:22;;;;;;;9.97;8.97;;;;;;;15.45;39.15;99214.50;6996436;28;20212;-78
2023/04/08 14:01:44;;;;;;;10.60;9.07;;;;;;;15.43;39.44;99218.47;7001464;28;20237;-78
2023/04/08 14:05:06;;;;;;;10.00;7.97;;;;;;;15.47;39.16;99176.22;7001197;28;20321;-78
2023/04/08 14:08:29;;;;;;;9.10;8.20;;;;;;;16.27;38.47;99222.03;7003388;28;20275;-77
2023/04/08 14:11:50;;;;;;;9.53;7.60;;;;;;;16.32;38.09;99224.84;7012357;28;20207;-79
2023/04/08 14:15:12;;;;;;;8.10;7.30;;;;;;;15.96;38.62;99214.91;7012516;28;20296;-77
2023/04/08 14:18:33;;;;;;;8.70;7.90;;;;;;;15.61;38.75;99226.63;7011263;28;20208;-79
2023/04/08 14:21:55;;;;;;;8.27;7.47;;;;;;;16.08;37.97;99229.41;7007152;28;20302;-80
2023/04/08 14:25:18;;;;;;;7.40;6.70;;;;;;;15.66;38.44;99232.22;7014908;28;20319;-82
2023/04/08 14:28:39;;;;;;;8.93;7.00;;;;;;;16.07;38.17;99238.63;7010212;28;20217;-82
2023/04/08 14:32:01;;;;;;;6.83;5.83;;;;;;;15.46;39.00;99232.44;7011189;28;20298;-80
2023/04/08 14:35:22;;;;;;;8.20;6.50;;;;;;;15.31;39.07;99236.56;7011874;28;20253;-77
2023/04/08 14:38:44;;;;;;;6.63;5.93;;;;;;;15.66;39.33;99232.22;7012500;28;20214;-80
2023/04/08 14:42:07;;;;;;;6.50;5.90;;;;;;;15.99;39.14;99232.66;7011749;28;20581;-80
2023/04/08 14:45:28;;;;;;;6.50;5.90;;;;;;;15.74;39.48;99234.66;7012691;28;20233;-81
2023/04/08 14:48:50;;;;;;;7.03;5.67;;;;;;;15.50;39.70;99230.94;7010560;28;20224;-79
2023/04/08 14:52:11;;;;;;;6.50;5.80;;;;;;;16.28;38.22;99235.38;7008957;28;20207;-80
2023/04/08 14:55:33;;;;;;;5.90;5.30;;;;;;;15.73;38.10;99184.88;7010467;28;20313;-79
2023/04/08 14:58:56;;;;;;;7.17;5.80;;;;;;;16.43;37.81;99237.72;7009743;28;20299;-80
2023/04/08 15:02:17;;;;;;;5.40;4.90;;;;;;;15.77;39.19;99237.75;7008561;28;20242;-80
2023/04/08 15:05:39;;;;;;;6.37;5.20;;;;;;;14.97;40.48;99237.09;7008212;28;20668;-81
2023/04/08 15:09:00;;;;;;;5.57;5.07;;;;;;;15.45;40.26;99240.84;7005557;28;20299;-79
2023/04/08 15:12:23;;;;;;;5.10;4.60;;;;;;;15.69;40.11;99246.19;6991936;28;20209;-80
2023/04/08 15:15:46;;;;;;;7.27;4.60;;;;;;;15.62;40.21;99250.06;7006156;28;20711;-79
2023/04/08 15:19:07;;;;;;;5.37;4.30;;;;;;;15.09;41.31;99228.00;7006993;28;20353;-79
2023/04/08 15:22:29;;;;;;;4.80;4.30;;;;;;;15.66;40.70;99237.66;7006203;28;20342;-84
2023/04/08 15:25:50;;;;;;;5.37;4.87;;;;;;;15.63;40.59;99263.41;7006395;28;20330;-79
2023/04/08 15:29:12;;;;;;;6.60;4.67;;;;;;;15.53;41.21;99249.53;7017216;28;20208;-77
2023/04/08 15:32:35;;;;;;;4.77;4.37;;;;;;;15.83;40.80;99257.75;7024890;28;20240;-78
2023/04/08 15:35:58;;;;;;;5.10;4.60;;;;;;;16.44;38.78;99255.69;7009267;28;20590;-77